Time;durP1;ratioP1;P1;durP2;ratioP2;P2;SDS_P1;SDS_P2;PMS_P1;PMS_P2;Temp;Humidity;BMP_temperature;BMP_pressure;BME280_temperature;BME280_humidity;BME280_pressure;Samples;Min_cycle;Max_cycle;Signal;HPM_P1;HPM_P2
2021/08/22 00:00:40;;;;;;;4.75;3.90;;;;;;;23.67;44.94;99872.78;5050399;28;20028;-37
2021/08/22 00:03:05;;;;;;;6.03;3.40;;;;;;;23.67;44.89;99872.78;5050490;28;20362;-36
2021/08/22 00:05:31;;;;;;;4.53;3.60;;;;;;;23.53;45.36;99872.63;5050278;28;20025;-36
2021/08/22 00:07:56;;;;;;;4.72;3.80;;;;;;;23.40;45.54;99876.84;5050108;28;20049;-37
2021/08/22 00:10:22;;;;;;;4.13;3.60;;;;;;;23.57;45.03;99870.97;5049922;28;20151;-37
2021/08/22 00:12:48;;;;;;;6.50;3.60;;;;;;;23.83;44.52;99874.25;5050111;28;20484;-36
2021/08/22 00:15:14;;;;;;;5.45;3.40;;;;;;;23.39;45.24;99854.31;5050263;28;20028;-37
2021/08/22 00:17:39;;;;;;;6.05;3.88;;;;;;;23.34;45.75;99867.94;5050280;28;20484;-37
2021/08/22 00:20:05;;;;;;;4.22;3.45;;;;;;;23.32;45.67;99863.88;5049640;28;20016;-37
2021/08/22 00:22:31;;;;;;;5.18;3.53;;;;;;;23.46;45.61;99872.19;5049957;28;20047;-37
2021/08/22 00:24:56;;;;;;;4.45;3.50;;;;;;;23.51;45.56;99870.19;5049105;28;20449;-35
2021/08/22 00:27:22;;;;;;;5.70;3.60;;;;;;;23.19;46.48;99870.78;5030045;28;20029;-36
2021/08/22 00:29:47;;;;;;;5.75;3.58;;;;;;;23.26;46.18;99875.88;5029643;28;20026;-36
2021/08/22 00:32:13;;;;;;;4.40;3.58;;;;;;;23.25;46.22;99876.97;5030187;28;20036;-37
2021/08/22 00:34:38;;;;;;;5.68;3.30;;;;;;;23.80;44.78;99874.84;5029857;28;20049;-37
2021/08/22 00:37:04;;;;;;;4.40;3.60;;;;;;;23.28;46.76;99882.63;5029736;28;20151;-36
2021/08/22 00:39:29;;;;;;;6.65;3.78;;;;;;;23.10;47.41;99881.44;5029810;28;20040;-36
2021/08/22 00:41:55;;;;;;;5.40;3.70;;;;;;;23.18;47.14;99882.72;5029549;28;20036;-36
2021/08/22 00:44:22;;;;;;;5.72;3.70;;;;;;;23.50;46.63;99887.59;5029454;28;20546;-36
2021/08/22 00:46:48;;;;;;;6.25;3.72;;;;;;;23.56;46.35;99891.09;5029384;28;20025;-36
2021/08/22 00:49:13;;;;;;;5.53;3.45;;;;;;;23.14;47.24;99889.81;5029180;28;20029;-36
2021/08/22 00:51:39;;;;;;;4.53;3.60;;;;;;;23.18;46.94;99888.97;5029362;28;20026;-36
2021/08/22 00:54:05;;;;;;;6.65;3.53;;;;;;;23.10;47.49;99897.72;5028914;28;20049;-37
2021/08/22 00:56:31;;;;;;;5.35;3.60;;;;;;;23.96;45.24;99884.44;5027867;28;20083;-37
2021/08/22 00:58:56;;;;;;;4.30;3.38;;;;;;;23.34;46.86;99884.22;5029656;28;20053;-37
2021/08/22 01:01:23;;;;;;;9.32;3.90;;;;;;;23.14;47.29;99882.47;5028234;28;20036;-36
2021/08/22 01:03:51;;;;;;;6.65;3.58;;;;;;;23.29;46.54;99886.97;5029440;28;20033;-36
2021/08/22 01:06:42;;;;;;;5.78;3.63;;;;;;;23.68;45.51;99885.25;5029595;28;20037;-37
2021/08/22 01:09:24;;;;;;;4.32;3.60;;;;;;;23.33;47.10;99895.38;5028309;28;20069;-37
2021/08/22 01:11:50;;;;;;;5.32;3.83;;;;;;;23.09;47.71;99889.84;5029343;28;20028;-37
2021/08/22 01:14:18;;;;;;;5.47;3.97;;;;;;;23.08;47.58;99893.69;5011570;28;20340;-36
2021/08/22 01:16:49;;;;;;;5.13;4.00;;;;;;;23.34;46.87;99897.81;5012066;28;20029;-37
2021/08/22 01:19:33;;;;;;;7.68;3.75;;;;;;;23.33;46.81;99903.50;5012164;28;20264;-37
2021/08/22 01:21:59;;;;;;;5.53;4.22;;;;;;;22.99;47.97;99893.44;5028242;28;20060;-36
2021/08/22 01:24:25;;;;;;;5.72;3.97;;;;;;;23.10;47.63;99892.28;5029770;28;20052;-36
2021/08/22 01:26:50;;;;;;;8.52;4.03;;;;;;;23.20;47.28;99888.69;5028004;28;20024;-37
2021/08/22 01:29:16;;;;;;;7.50;4.07;;;;;;;23.78;45.49;99891.44;5047845;28;20469;-37
2021/08/22 01:31:48;;;;;;;6.63;4.38;;;;;;;23.05;47.07;99886.88;5049125;28;20017;-37
2021/08/22 01:34:14;;;;;;;8.88;4.35;;;;;;;23.11;47.04;99882.25;5047746;28;20123;-37
2021/08/22 01:36:40;;;;;;;7.20;4.65;;;;;;;23.13;46.88;99885.47;5048071;28;20031;-37
2021/08/22 01:39:05;;;;;;;6.10;4.05;;;;;;;23.74;45.10;99889.53;5048005;28;20033;-36
2021/08/22 01:41:31;;;;;;;7.47;4.43;;;;;;;23.30;46.75;99888.59;5035948;28;20025;-36
2021/08/22 01:43:56;;;;;;;6.22;4.20;;;;;;;23.03;47.03;99887.16;5027837;28;20029;-36
2021/08/22 01:46:24;;;;;;;6.65;4.75;;;;;;;22.90;48.15;99889.69;5027712;28;20147;-36
2021/08/22 01:48:51;;;;;;;7.10;4.38;;;;;;;23.00;47.57;99893.16;5029108;28;20025;-36
2021/08/22 01:51:16;;;;;;;6.85;4.43;;;;;;;23.48;46.47;99889.81;5027646;28;20025;-36
2021/08/22 01:53:42;;;;;;;6.57;4.60;;;;;;;23.13;47.38;99885.47;5029065;28;20040;-36
2021/08/22 01:56:07;;;;;;;6.15;4.53;;;;;;;22.87;47.93;99888.34;5027700;28;20025;-51
2021/08/22 01:58:33;;;;;;;6.70;4.82;;;;;;;22.80;48.17;99891.38;5028890;28;20450;-50
2021/08/22 02:00:58;;;;;;;5.55;4.63;;;;;;;23.57;45.88;99893.53;5028382;28;20025;-50
2021/08/22 02:04:00;;;;;;;9.50;5.03;;;;;;;22.92;47.66;99896.44;5029868;28;20097;-50
2021/08/22 02:06:47;;;;;;;9.32;5.22;;;;;;;22.80;47.65;99890.56;5029285;28;20485;-51
2021/08/22 02:09:13;;;;;;;10.00;5.50;;;;;;;22.77;47.78;99902.78;5032089;28;20116;-48
2021/08/22 02:11:54;;;;;;;9.02;5.13;;;;;;;23.45;46.43;99903.13;5032982;28;20398;-50
2021/08/22 02:14:20;;;;;;;9.95;5.28;;;;;;;23.08;47.04;99897.19;5033408;28;20033;-48
2021/08/22 02:16:47;;;;;;;8.63;5.05;;;;;;;22.87;47.59;99898.41;5031957;28;20052;-48
2021/08/22 02:19:13;;;;;;;7.20;5.18;;;;;;;22.72;48.30;99897.41;5031727;28;20434;-50
2021/08/22 02:21:38;;;;;;;9.38;5.50;;;;;;;22.97;47.67;99901.84;5031533;28;20021;-50
2021/08/22 02:24:04;;;;;;;7.28;5.07;;;;;;;23.20;47.12;99902.25;5031801;28;20116;-48
2021/08/22 02:26:29;;;;;;;10.50;5.30;;;;;;;22.74;48.06;99897.94;5046289;28;20549;-51
2021/08/22 02:28:56;;;;;;;9.02;5.28;;;;;;;22.79;48.28;99895.19;5035020;28;20032;-51
2021/08/22 02:31:21;;;;;;;9.10;5.30;;;;;;;22.91;47.67;99892.13;5053381;28;20039;-50
2021/08/22 02:33:46;;;;;;;9.38;5.07;;;;;;;23.69;45.51;99895.84;5052996;28;20021;-50
2021/08/22 02:36:12;;;;;;;11.93;5.25;;;;;;;23.15;47.37;99896.84;5052575;28;20464;-50
2021/08/22 02:38:37;;;;;;;8.25;5.32;;;;;;;22.93;47.65;99894.56;5052726;28;20083;-47
2021/08/22 02:41:03;;;;;;;10.38;5.47;;;;;;;22.84;47.63;99881.56;5053222;28;20186;-49
2021/08/22 02:43:28;;;;;;;8.90;5.13;;;;;;;23.31;46.73;99890.22;5052701;28;20401;-51
2021/08/22 02:45:54;;;;;;;8.52;5.20;;;;;;;23.42;46.22;99886.31;5052821;28;20036;-50
2021/08/22 02:48:19;;;;;;;6.43;5.10;;;;;;;23.20;46.89;99888.69;5052448;28;20523;-49
2021/08/22 02:50:45;;;;;;;8.27;5.47;;;;;;;23.06;47.17;99882.28;5052220;28;20028;-47
2021/08/22 02:53:10;;;;;;;7.00;5.28;;;;;;;23.01;47.16;99878.47;5052546;28;20040;-48
2021/08/22 02:55:36;;;;;;;9.40;5.50;;;;;;;23.94;44.98;99881.22;5052445;28;20051;-48
2021/08/22 02:58:02;;;;;;;7.50;5.25;;;;;;;23.30;46.14;99876.94;5052630;28;20112;-51
2021/08/22 03:00:27;;;;;;;7.30;5.47;;;;;;;22.94;47.22;99885.31;5052498;28;20116;-50
2021/08/22 03:02:53;;;;;;;8.95;5.68;;;;;;;22.95;47.69;99874.19;5052234;28;20083;-50
2021/08/22 03:05:18;;;;;;;7.95;5.63;;;;;;;23.39;46.09;99867.88;5051541;28;20487;-51
2021/08/22 03:07:44;;;;;;;8.40;5.13;;;;;;;23.24;46.65;99876.16;5051735;28;20048;-47
2021/08/22 03:10:11;;;;;;;8.57;5.30;;;;;;;23.09;46.85;99877.09;5052225;28;20056;-51
2021/08/22 03:12:36;;;;;;;7.18;5.25;;;;;;;22.99;47.04;99879.84;5051847;28;20037;-50
2021/08/22 03:15:06;;;;;;;9.27;5.18;;;;;;;23.55;45.44;99881.31;5051932;28;20143;-52
2021/08/22 03:17:32;;;;;;;8.05;5.47;;;;;;;23.35;45.83;99874.97;5051670;28;20078;-49
2021/08/22 03:19:57;;;;;;;8.77;5.45;;;;;;;23.09;46.43;99879.00;5051888;28;20021;-49
2021/08/22 03:22:23;;;;;;;6.82;5.30;;;;;;;22.94;46.75;99880.72;5052029;28;20441;-47
2021/08/22 03:24:49;;;;;;;8.18;5.93;;;;;;;23.10;46.38;99883.34;5051511;28;20311;-50
2021/08/22 03:27:15;;;;;;;8.40;5.68;;;;;;;22.83;47.00;99885.41;5049045;28;20043;-49
2021/08/22 03:29:40;;;;;;;7.60;5.68;;;;;;;22.52;47.53;99883.94;5051643;28;20029;-52
2021/08/22 03:32:06;;;;;;;7.07;5.43;;;;;;;22.54;47.14;99892.59;5051710;28;20108;-50
2021/08/22 03:34:32;;;;;;;7.47;5.65;;;;;;;22.75;46.70;99887.88;5051313;28;20021;-49
2021/08/22 03:36:57;;;;;;;8.90;5.43;;;;;;;22.83;46.55;99887.31;5051393;28;20052;-47
2021/08/22 03:39:23;;;;;;;6.82;5.50;;;;;;;22.47;47.36;99881.28;5051471;28;20013;-48
2021/08/22 03:41:48;;;;;;;7.35;5.22;;;;;;;22.48;47.66;99893.72;5036849;28;20029;-48
2021/08/22 03:44:13;;;;;;;11.35;5.50;;;;;;;22.47;47.99;99892.94;5031516;28;20386;-49
2021/08/22 03:46:39;;;;;;;7.15;5.55;;;;;;;22.95;46.34;99895.09;5031266;28;20021;-48
2021/08/22 03:49:04;;;;;;;6.32;5.43;;;;;;;22.71;47.28;99893.06;5031320;28;20033;-48
2021/08/22 03:51:30;;;;;;;6.95;5.40;;;;;;;22.42;47.75;99890.22;5031204;28;20485;-50
2021/08/22 03:53:55;;;;;;;10.40;5.60;;;;;;;22.36;48.46;99891.34;5031219;28;20083;-49
2021/08/22 03:56:21;;;;;;;8.93;5.65;;;;;;;22.45;48.22;99895.09;5031486;28;20030;-49
2021/08/22 03:58:46;;;;;;;9.02;5.53;;;;;;;23.13;46.47;99896.34;5031065;28;20028;-50
2021/08/22 04:01:12;;;;;;;6.07;5.05;;;;;;;22.72;47.66;99891.97;5031299;28;20030;-48
2021/08/22 04:03:39;;;;;;;7.10;5.03;;;;;;;22.71;47.89;99895.75;5031192;28;20486;-51
2021/08/22 04:06:05;;;;;;;7.68;5.40;;;;;;;22.79;47.49;99895.19;5031649;28;20029;-51
2021/08/22 04:08:31;;;;;;;9.05;5.40;;;;;;;23.55;45.80;99898.44;5030833;28;20088;-51
2021/08/22 04:10:57;;;;;;;10.15;5.20;;;;;;;23.24;46.68;99889.72;5030779;28;20039;-47
2021/08/22 04:13:22;;;;;;;7.63;5.10;;;;;;;22.95;47.45;99895.88;5030618;28;20036;-49
2021/08/22 04:15:49;;;;;;;7.82;5.05;;;;;;;22.99;47.49;99898.84;5030919;28;20029;-49
2021/08/22 04:18:15;;;;;;;5.95;5.10;;;;;;;23.32;46.67;99902.72;5030914;28;20041;-48
2021/08/22 04:20:41;;;;;;;6.68;5.18;;;;;;;23.81;45.24;99907.16;5029586;28;20112;-47
2021/08/22 04:23:07;;;;;;;6.28;5.03;;;;;;;23.38;46.06;99907.00;5031021;28;20037;-50
2021/08/22 04:25:32;;;;;;;6.57;4.95;;;;;;;23.59;45.27;99907.63;5036616;28;20036;-50
2021/08/22 04:27:58;;;;;;;9.30;5.00;;;;;;;23.64;45.84;99916.81;5050843;28;20424;-52
2021/08/22 04:30:23;;;;;;;8.35;5.13;;;;;;;24.42;44.21;99915.69;5050208;28;20021;-50
2021/08/22 04:32:49;;;;;;;6.82;5.28;;;;;;;24.17;44.38;99919.56;5050426;28;20060;-51
2021/08/22 04:35:14;;;;;;;7.65;5.47;;;;;;;24.13;44.41;99915.78;5050747;28;20044;-51
2021/08/22 04:37:41;;;;;;;5.63;4.80;;;;;;;24.15;44.27;99925.28;5050685;28;20035;-50
2021/08/22 04:40:07;;;;;;;6.50;5.15;;;;;;;24.38;43.70;99922.84;5050788;28;20155;-49
2021/08/22 04:42:33;;;;;;;8.88;5.13;;;;;;;24.62;43.16;99922.84;5050460;28;20047;-47
2021/08/22 04:44:59;;;;;;;6.45;5.28;;;;;;;24.23;44.08;99920.31;5049079;28;20033;-51
2021/08/22 04:47:25;;;;;;;10.65;6.63;;;;;;;24.29;44.17;99922.66;5050819;28;20044;-47
2021/08/22 04:49:50;;;;;;;7.90;6.10;;;;;;;24.51;43.63;99924.88;5050229;28;20036;-48
2021/08/22 04:52:16;;;;;;;8.02;5.47;;;;;;;25.50;41.81;99925.06;5050381;28;20109;-48
2021/08/22 04:54:42;;;;;;;8.13;5.00;;;;;;;25.30;42.29;99926.22;5050595;28;20021;-50
2021/08/22 04:57:07;;;;;;;9.13;5.07;;;;;;;25.04;42.80;99933.94;5050417;28;20044;-48
2021/08/22 04:59:33;;;;;;;7.40;5.50;;;;;;;25.38;41.91;99930.16;5050338;28;20040;-47
2021/08/22 05:01:58;;;;;;;7.47;6.05;;;;;;;25.86;40.85;99932.63;5050504;28;20583;-51
2021/08/22 05:04:24;;;;;;;7.60;5.22;;;;;;;25.87;40.57;99936.94;5048720;28;20025;-49
2021/08/22 05:06:49;;;;;;;10.38;5.30;;;;;;;25.80;40.69;99939.25;5049870;28;20053;-49
2021/08/22 05:09:15;;;;;;;7.75;4.97;;;;;;;26.00;40.67;99944.34;5050170;28;20044;-48
2021/08/22 05:11:40;;;;;;;6.47;5.30;;;;;;;26.17;40.13;99937.50;5049507;28;20025;-50
2021/08/22 05:14:06;;;;;;;9.65;5.40;;;;;;;26.83;38.63;99938.06;5050236;28;20021;-51
2021/08/22 05:16:31;;;;;;;7.45;5.20;;;;;;;26.23;39.81;99939.81;5050087;28;20108;-49
2021/08/22 05:18:57;;;;;;;6.65;4.82;;;;;;;26.43;39.21;99941.34;5050216;28;20430;-52
2021/08/22 05:21:22;;;;;;;8.65;5.18;;;;;;;26.52;39.20;99933.22;5050132;28;20025;-50
2021/08/22 05:23:48;;;;;;;7.45;5.22;;;;;;;27.51;37.63;99944.38;5050037;28;20055;-51
2021/08/22 05:26:13;;;;;;;8.82;5.63;;;;;;;26.79;38.52;99940.59;5038399;28;20171;-50
2021/08/22 05:28:39;;;;;;;7.80;5.30;;;;;;;26.60;38.94;99932.56;5029724;28;20084;-50
2021/08/22 05:31:04;;;;;;;8.43;5.38;;;;;;;27.11;37.65;99925.94;5029893;28;20048;-49
2021/08/22 05:33:30;;;;;;;5.75;5.00;;;;;;;27.59;36.97;99929.19;5029895;28;20040;-51
2021/08/22 05:35:55;;;;;;;6.07;5.00;;;;;;;27.47;37.10;99930.56;5029863;28;20041;-48
2021/08/22 05:38:20;;;;;;;7.32;5.30;;;;;;;27.60;36.84;99930.78;5030221;28;20091;-52
2021/08/22 05:40:46;;;;;;;9.27;5.00;;;;;;;27.86;36.21;99931.72;5030145;28;20339;-50
2021/08/22 05:43:11;;;;;;;7.20;4.72;;;;;;;27.55;36.97;99929.00;5033398;28;20037;-51
2021/08/22 05:45:37;;;;;;;7.40;5.20;;;;;;;28.10;35.82;99936.03;5033753;28;20040;-50
2021/08/22 05:48:03;;;;;;;5.88;4.68;;;;;;;28.01;36.16;99927.81;5033477;28;20030;-52
2021/08/22 05:50:28;;;;;;;6.22;4.70;;;;;;;27.96;36.10;99924.41;5033440;28;20029;-49
2021/08/22 05:52:54;;;;;;;8.55;4.80;;;;;;;28.06;36.04;99930.41;5033969;28;20470;-50
2021/08/22 05:55:20;;;;;;;5.95;4.50;;;;;;;29.11;34.64;99936.06;5033278;28;20060;-51
2021/08/22 05:57:45;;;;;;;6.05;4.80;;;;;;;29.14;34.50;99926.44;5031744;28;20033;-49
2021/08/22 06:00:11;;;;;;;5.55;4.65;;;;;;;28.76;34.74;99924.31;5033271;28;20033;-46
2021/08/22 06:02:36;;;;;;;7.88;5.05;;;;;;;29.12;34.24;99934.94;5033366;28;20040;-53
2021/08/22 06:05:05;;;;;;;7.65;5.10;;;;;;;29.05;34.13;99932.69;5033261;28;20030;-48
2021/08/22 06:07:31;;;;;;;;;;;;;;;30.14;32.33;99941.66;5033700;28;20053;-51
2021/08/22 06:09:57;;;;;;;9.25;4.95;;;;;;;29.82;33.00;99935.66;5033043;28;20023;-52
2021/08/22 06:12:22;;;;;;;6.72;4.95;;;;;;;29.74;33.19;99928.28;5033067;28;20068;-50
2021/08/22 06:14:48;;;;;;;6.80;5.03;;;;;;;29.87;32.89;99928.38;5033071;28;20025;-50
2021/08/22 06:17:13;;;;;;;5.85;4.78;;;;;;;30.88;31.36;99936.72;5033077;28;20033;-50
2021/08/22 06:19:39;;;;;;;10.15;6.57;;;;;;;30.78;31.90;99937.09;5032848;28;20136;-52
2021/08/22 06:22:04;;;;;;;8.68;4.95;;;;;;;30.56;32.45;99936.28;5033036;28;20032;-50
2021/08/22 06:24:33;;;;;;;7.25;4.80;;;;;;;30.58;32.03;99941.44;5032425;28;20538;-51
2021/08/22 06:26:59;;;;;;;8.85;4.95;;;;;;;31.22;30.96;99936.78;5050459;28;20024;-48
2021/08/22 06:29:25;;;;;;;9.20;6.00;;;;;;;31.30;30.99;99935.88;5051995;28;20033;-49
2021/08/22 06:31:51;;;;;;;6.45;5.18;;;;;;;30.77;32.08;99941.78;5052345;28;20031;-50
2021/08/22 06:34:17;;;;;;;8.85;5.00;;;;;;;30.77;31.36;99941.00;5052585;28;20185;-48
2021/08/22 06:36:42;;;;;;;5.93;4.85;;;;;;;30.88;31.19;99938.63;5052433;28;20036;-48
2021/08/22 06:39:08;;;;;;;6.55;4.95;;;;;;;31.69;29.95;99939.22;5053157;28;20037;-51
2021/08/22 06:41:33;;;;;;;6.57;4.90;;;;;;;31.32;30.39;99945.41;5052409;28;20129;-49
2021/08/22 06:43:59;;;;;;;6.97;5.03;;;;;;;31.26;30.60;99943.97;5052632;28;20036;-49
2021/08/22 06:46:25;;;;;;;6.22;4.60;;;;;;;31.45;30.83;99943.47;5052560;28;20484;-48
2021/08/22 06:48:50;;;;;;;7.25;5.10;;;;;;;32.32;29.45;99937.00;5032492;28;20025;-50
2021/08/22 06:51:16;;;;;;;5.30;4.80;;;;;;;32.33;29.36;99946.88;5032303;28;20029;-49
2021/08/22 06:53:42;;;;;;;6.65;5.07;;;;;;;32.27;29.27;99944.69;5032086;28;20025;-48
2021/08/22 06:56:07;;;;;;;6.45;5.00;;;;;;;32.06;29.86;99940.13;5032115;28;20056;-48
2021/08/22 06:58:32;;;;;;;5.78;4.45;;;;;;;32.68;28.96;99948.34;5032147;28;20504;-49
2021/08/22 07:00:58;;;;;;;5.50;4.93;;;;;;;32.58;28.72;99940.53;5032056;28;20030;-48
2021/08/22 07:03:23;;;;;;;6.40;4.60;;;;;;;32.16;28.89;99941.59;5032174;28;20052;-50
2021/08/22 07:05:49;;;;;;;7.43;4.47;;;;;;;32.29;29.07;99934.13;5031987;28;20036;-49
2021/08/22 07:08:14;;;;;;;7.38;4.88;;;;;;;32.43;29.22;99936.53;5031341;28;20108;-52
2021/08/22 07:10:40;;;;;;;5.45;4.95;;;;;;;33.01;28.24;99947.31;5032217;28;20029;-48
2021/08/22 07:13:06;;;;;;;9.85;4.70;;;;;;;32.84;28.17;99943.72;5032009;28;20060;-50
2021/08/22 07:15:31;;;;;;;5.28;4.30;;;;;;;32.89;27.76;99939.91;5031671;28;20021;-48
2021/08/22 07:17:57;;;;;;;5.32;4.40;;;;;;;33.23;27.35;99937.75;5031128;28;20052;-49
2021/08/22 07:20:22;;;;;;;5.35;3.95;;;;;;;32.68;27.53;99943.63;5030906;28;20030;-48
2021/08/22 07:22:48;;;;;;;6.32;4.20;;;;;;;33.39;26.81;99944.06;5030812;28;20462;-48
2021/08/22 07:25:13;;;;;;;5.20;3.90;;;;;;;32.91;27.12;99945.88;5033820;28;20025;-49
2021/08/22 07:27:38;;;;;;;4.95;4.25;;;;;;;33.33;26.76;99936.44;5050334;28;20041;-51
2021/08/22 07:30:04;;;;;;;5.25;4.00;;;;;;;33.15;26.86;99930.41;5050473;28;20021;-51
2021/08/22 07:32:30;;;;;;;5.85;4.15;;;;;;;34.31;25.87;99933.03;5050456;28;20032;-51
2021/08/22 07:34:55;;;;;;;8.13;4.32;;;;;;;34.10;25.74;99938.84;5050379;28;20414;-50
2021/08/22 07:37:21;;;;;;;7.80;4.28;;;;;;;34.19;25.38;99933.13;5050196;28;20033;-49
2021/08/22 07:39:46;;;;;;;5.93;4.03;;;;;;;34.05;25.54;99922.53;5050377;28;20025;-52
2021/08/22 07:42:12;;;;;;;8.07;4.13;;;;;;;34.37;25.59;99928.84;5049892;28;20413;-51
2021/08/22 07:44:37;;;;;;;9.10;3.90;;;;;;;34.53;24.99;99919.69;5050198;28;20024;-51
2021/08/22 07:47:03;;;;;;;5.15;4.20;;;;;;;34.55;24.66;99929.22;5049332;28;20397;-50
2021/08/22 07:49:28;;;;;;;8.43;4.65;;;;;;;34.55;24.59;99928.44;5049608;28;20028;-51
2021/08/22 07:51:54;;;;;;;5.25;4.18;;;;;;;34.53;24.16;99919.69;5049709;28;20032;-52
2021/08/22 07:54:19;;;;;;;6.35;4.30;;;;;;;35.13;24.25;99920.19;5049201;28;20047;-50
2021/08/22 07:56:45;;;;;;;4.88;4.32;;;;;;;34.52;25.11;99924.44;5049858;28;20404;-49
2021/08/22 07:59:10;;;;;;;4.75;4.30;;;;;;;34.58;24.65;99925.75;5049410;28;20485;-51
2021/08/22 08:01:36;;;;;;;5.97;4.60;;;;;;;34.53;24.79;99931.53;5049489;28;20555;-49
2021/08/22 08:04:02;;;;;;;4.80;4.28;;;;;;;34.82;24.46;99921.13;5048741;28;20033;-50
2021/08/22 08:06:27;;;;;;;5.10;4.43;;;;;;;35.31;23.73;99923.31;5049418;28;20113;-51
2021/08/22 08:08:53;;;;;;;4.90;4.15;;;;;;;34.78;24.51;99917.50;5037873;28;20050;-52
2021/08/22 08:11:18;;;;;;;4.40;4.00;;;;;;;34.90;24.23;99913.78;5029723;28;20465;-49
2021/08/22 08:13:43;;;;;;;7.25;4.45;;;;;;;34.77;24.51;99913.94;5029387;28;20037;-48
2021/08/22 08:16:09;;;;;;;5.13;4.45;;;;;;;35.84;23.47;99908.84;5028183;28;20037;-51
2021/08/22 08:18:35;;;;;;;7.13;4.20;;;;;;;35.52;23.20;99906.31;5029258;28;20029;-51
2021/08/22 08:21:02;;;;;;;4.75;4.25;;;;;;;35.15;23.47;99912.31;5029151;28;20079;-49
2021/08/22 08:23:27;;;;;;;5.13;4.30;;;;;;;35.07;24.61;99915.31;5029408;28;20028;-48
2021/08/22 08:25:53;;;;;;;6.43;5.00;;;;;;;35.66;23.20;99908.50;5029360;28;20104;-48
2021/08/22 08:28:19;;;;;;;36.95;20.50;;;;;;;36.16;23.26;99903.81;5029318;28;20025;-50
2021/08/22 08:30:44;;;;;;;102.50;87.40;;;;;;;35.95;24.51;99897.97;5029437;28;20100;-48
2021/08/22 08:33:10;;;;;;;122.25;109.95;;;;;;;35.57;24.98;99903.22;5029297;28;20055;-47
2021/08/22 08:35:35;;;;;;;65.72;50.45;;;;;;;35.62;24.39;99897.41;5029194;28;20025;-47
2021/08/22 08:38:01;;;;;;;327.73;295.50;;;;;;;36.60;24.12;99897.72;5029244;28;20021;-50
2021/08/22 08:40:26;;;;;;;385.08;238.73;;;;;;;36.28;23.17;99904.78;5028862;28;20033;-48
2021/08/22 08:43:04;;;;;;;54.28;44.75;;;;;;;35.99;24.02;99902.38;5029024;28;20029;-50
2021/08/22 08:45:42;;;;;;;34.13;30.30;;;;;;;36.74;22.07;99894.34;5028758;28;20021;-50
2021/08/22 08:48:07;;;;;;;31.85;28.83;;;;;;;36.70;22.13;99889.94;5029043;28;20025;-49
2021/08/22 08:50:36;;;;;;;32.85;29.45;;;;;;;36.97;22.04;99896.19;5028733;28;20091;-50
2021/08/22 08:53:05;;;;;;;105.97;51.97;;;;;;;37.05;21.09;99889.56;5028929;28;20083;-49
2021/08/22 08:55:40;;;;;;;43.75;27.85;;;;;;;36.59;22.71;99887.00;5028904;28;20057;-50
2021/08/22 08:58:05;;;;;;;26.85;20.13;;;;;;;36.66;22.01;99886.34;5028780;28;20036;-50
2021/08/22 09:00:35;;;;;;;97.60;86.43;;;;;;;36.95;23.01;99882.69;5028805;28;20010;-47
2021/08/22 09:03:02;;;;;;;91.13;81.80;;;;;;;36.95;23.16;99879.13;5028889;28;20078;-48
2021/08/22 09:05:48;;;;;;;241.93;115.32;;;;;;;37.00;21.90;99878.81;5028822;28;20029;-50
2021/08/22 09:08:50;;;;;;;21.13;16.23;;;;;;;36.70;22.50;99882.41;5027534;28;20057;-48
2021/08/22 09:11:15;;;;;;;104.40;88.07;;;;;;;36.57;23.22;99879.06;5028571;28;20128;-48
2021/08/22 09:13:44;;;;;;;65.85;58.85;;;;;;;36.94;21.61;99880.34;5028523;28;20541;-49
2021/08/22 09:16:23;;;;;;;80.82;73.03;;;;;;;36.77;21.65;99868.66;5030793;28;20047;-48
2021/08/22 09:19:26;;;;;;;30.83;22.23;;;;;;;36.52;21.20;99864.72;5031270;28;20105;-47
2021/08/22 09:22:19;;;;;;;27.00;20.23;;;;;;;36.88;21.07;99866.00;5032782;28;20473;-51
2021/08/22 09:25:22;;;;;;;59.50;50.50;;;;;;;36.34;21.50;99864.50;5032708;28;20037;-48
2021/08/22 09:28:21;;;;;;;171.82;153.63;;;;;;;35.98;21.96;99859.22;5032954;28;20033;-51
2021/08/22 09:31:24;;;;;;;1312.30;697.22;;;;;;;35.78;22.31;99854.97;5032726;28;20025;-49
2021/08/22 09:34:26;;;;;;;1194.40;774.67;;;;;;;36.00;21.72;99848.59;5032544;28;20025;-51
2021/08/22 09:37:07;;;;;;;1999.90;999.55;;;;;;;35.73;22.27;99860.81;5032446;28;20200;-49
2021/08/22 09:40:10;;;;;;;1841.40;890.55;;;;;;;36.20;22.23;99848.50;5032699;28;20029;-51
2021/08/22 09:43:03;;;;;;;1511.10;868.05;;;;;;;36.60;21.37;99852.59;5032226;28;20056;-51
2021/08/22 09:45:54;;;;;;;1794.80;906.60;;;;;;;37.02;19.25;99850.72;5032132;28;20029;-50
2021/08/22 09:48:56;;;;;;;734.55;519.42;;;;;;;35.93;20.27;99847.66;5032309;28;20022;-48
2021/08/22 09:51:58;;;;;;;1096.57;698.05;;;;;;;36.30;20.58;99852.59;5031977;28;20168;-49
2021/08/22 09:54:27;;;;;;;1613.82;909.58;;;;;;;36.69;19.93;99849.53;5031818;28;20459;-52
2021/08/22 09:57:29;;;;;;;32.53;21.83;;;;;;;36.97;19.33;99841.53;5032015;28;20029;-48
2021/08/22 10:00:00;;;;;;;5.15;4.30;;;;;;;36.42;20.68;99840.47;5032382;28;20030;-48
2021/08/22 10:02:55;;;;;;;4.80;4.30;;;;;;;35.56;20.50;99845.50;5032125;28;20021;-50
2021/08/22 10:06:01;;;;;;;6.07;4.32;;;;;;;34.89;21.28;99849.41;5030808;28;20021;-51
2021/08/22 10:08:30;;;;;;;5.03;4.38;;;;;;;34.85;21.14;99846.59;5030477;28;20037;-49
2021/08/22 10:10:57;;;;;;;;;;;;;;;35.32;21.56;99843.91;5032120;28;20060;-50
2021/08/22 10:13:22;;;;;;;5.97;4.65;;;;;;;35.62;21.05;99836.53;5031462;28;19909;-49
2021/08/22 10:15:48;;;;;;;5.28;4.25;;;;;;;36.07;20.75;99833.25;5031382;28;20022;-50
2021/08/22 10:18:24;;;;;;;29.15;19.20;;;;;;;36.66;20.62;99828.94;5030386;28;20025;-49
2021/08/22 10:20:50;;;;;;;23.13;15.00;;;;;;;36.12;21.06;99841.22;5031223;28;20051;-48
2021/08/22 10:23:42;;;;;;;5.25;4.40;;;;;;;35.59;20.68;99830.94;5031812;28;20100;-50
2021/08/22 10:26:09;;;;;;;5.35;4.38;;;;;;;35.43;21.94;99826.34;5041881;28;20041;-50
2021/08/22 10:28:55;;;;;;;5.38;4.38;;;;;;;36.15;20.47;99823.88;5050502;28;20025;-50
2021/08/22 10:31:49;;;;;;;5.43;4.25;;;;;;;34.72;22.15;99831.31;5050911;28;20124;-49
2021/08/22 10:34:14;;;;;;;5.10;4.32;;;;;;;34.49;22.62;99827.69;5031670;28;20028;-48
2021/08/22 10:36:40;;;;;;;6.22;4.72;;;;;;;34.28;22.02;99829.59;5031740;28;20029;-51
2021/08/22 10:39:27;;;;;;;6.20;4.85;;;;;;;34.20;22.47;99827.06;5031973;28;20034;-48
2021/08/22 10:41:56;;;;;;;5.93;4.80;;;;;;;33.53;22.63;99825.09;5031308;28;20501;-50
2021/08/22 10:44:35;;;;;;;4.72;4.20;;;;;;;34.01;22.85;99822.28;5029995;28;20374;-50
2021/08/22 10:47:11;;;;;;;6.82;4.63;;;;;;;34.40;22.11;99816.81;5031434;28;20029;-49
2021/08/22 10:49:55;;;;;;;6.68;4.60;;;;;;;34.57;21.35;99813.63;5050071;28;20060;-50
2021/08/22 10:52:33;;;;;;;5.43;4.40;;;;;;;34.32;22.08;99823.38;5051352;28;20040;-52
2021/08/22 10:55:10;;;;;;;5.28;4.60;;;;;;;33.93;22.68;99820.50;5051068;28;20100;-48
2021/08/22 10:57:56;;;;;;;5.25;4.65;;;;;;;34.51;21.84;99809.56;5050667;28;20025;-49
2021/08/22 11:00:31;;;;;;;10.27;5.20;;;;;;;34.44;21.87;99810.22;5050514;28;20118;-51
2021/08/22 11:03:00;;;;;;;4.90;4.38;;;;;;;34.76;21.07;99795.47;5051040;28;20055;-51
2021/08/22 11:05:26;;;;;;;6.97;4.78;;;;;;;34.89;21.42;99805.19;5050747;28;20041;-50
2021/08/22 11:07:52;;;;;;;6.05;4.28;;;;;;;34.71;21.56;99807.63;5050420;28;20049;-48
2021/08/22 11:10:22;;;;;;;5.53;4.65;;;;;;;35.27;21.11;99789.72;5050312;28;20021;-50
2021/08/22 11:12:51;;;;;;;7.82;4.50;;;;;;;35.81;20.83;99790.56;5050349;28;20036;-50
2021/08/22 11:15:26;;;;;;;7.13;4.90;;;;;;;35.96;20.71;99792.34;5050507;28;20048;-48
2021/08/22 11:17:56;;;;;;;7.20;6.15;;;;;;;35.69;20.66;99794.34;5050687;28;20013;-49
2021/08/22 11:20:24;;;;;;;8.38;6.47;;;;;;;35.16;21.34;99783.94;5051436;28;20021;-51
2021/08/22 11:22:55;;;;;;;4.63;4.20;;;;;;;34.83;21.30;99801.94;5051260;28;20031;-48
2021/08/22 11:25:24;;;;;;;5.95;4.55;;;;;;;34.67;22.04;99787.41;5051112;28;20051;-50
2021/08/22 11:27:53;;;;;;;5.55;4.90;;;;;;;34.13;22.83;99791.78;5050943;28;20035;-36
2021/08/22 11:30:18;;;;;;;5.38;4.68;;;;;;;34.26;22.52;99785.00;5033888;28;20025;-37
2021/08/22 11:32:49;;;;;;;5.07;4.55;;;;;;;35.28;21.94;99773.91;5051102;28;20021;-37
2021/08/22 11:35:21;;;;;;;5.07;4.57;;;;;;;35.65;20.34;99779.63;5051082;28;20044;-37
2021/08/22 11:37:46;;;;;;;6.03;4.43;;;;;;;35.19;21.22;99774.97;5050854;28;20473;-37